sensor_id;sensor_type;location;lat;lon;timestamp;temperature;humidity
8557;DHT22;4316;53.840;10.762;2023-07-31T00:00:32;16.20;99.90
8557;DHT22;4316;53.840;10.762;2023-07-31T00:02:58;16.20;99.90
8557;DHT22;4316;53.840;10.762;2023-07-31T00:05:23;16.20;99.90
8557;DHT22;4316;53.840;10.762;2023-07-31T00:07:49;16.20;99.90
8557;DHT22;4316;53.840;10.762;2023-07-31T00:10:15;16.10;99.90
8557;DHT22;4316;53.840;10.762;2023-07-31T00:12:42;16.10;99.90
8557;DHT22;4316;53.840;10.762;2023-07-31T00:15:09;16.10;99.90
8557;DHT22;4316;53.840;10.762;2023-07-31T00:17:34;16.10;99.90
8557;DHT22;4316;53.840;10.762;2023-07-31T00:20:00;16.10;99.90
8557;DHT22;4316;53.840;10.762;2023-07-31T00:22:26;16.10;99.90
8557;DHT22;4316;53.840;10.762;2023-07-31T00:24:51;16.00;99.90
8557;DHT22;4316;53.840;10.762;2023-07-31T00:27:17;16.00;99.90
8557;DHT22;4316;53.840;10.762;2023-07-31T00:29:43;16.00;99.90
8557;DHT22;4316;53.840;10.762;2023-07-31T00:32:08;15.90;99.90
8557;DHT22;4316;53.840;10.762;2023-07-31T00:34:36;15.90;99.90
8557;DHT22;4316;53.840;10.762;2023-07-31T00:37:02;15.80;99.90
8557;DHT22;4316;53.840;10.762;2023-07-31T00:39:30;15.80;99.90
8557;DHT22;4316;53.840;10.762;2023-07-31T00:41:55;15.80;99.90
8557;DHT22;4316;53.840;10.762;2023-07-31T00:44:21;15.90;99.90
8557;DHT22;4316;53.840;10.762;2023-07-31T00:46:46;15.80;99.90
8557;DHT22;4316;53.840;10.762;2023-07-31T00:49:12;15.80;99.90
8557;DHT22;4316;53.840;10.762;2023-07-31T00:51:38;15.80;99.90
8557;DHT22;4316;53.840;10.762;2023-07-31T00:54:03;15.90;99.90
8557;DHT22;4316;53.840;10.762;2023-07-31T00:56:29;16.00;99.90
8557;DHT22;4316;53.840;10.762;2023-07-31T00:58:55;16.00;99.90
8557;DHT22;4316;53.840;10.762;2023-07-31T01:01:21;16.00;99.90
8557;DHT22;4316;53.840;10.762;2023-07-31T01:03:48;16.00;99.90
8557;DHT22;4316;53.840;10.762;2023-07-31T01:06:23;16.00;99.90
8557;DHT22;4316;53.840;10.762;2023-07-31T01:09:02;16.00;99.90
8557;DHT22;4316;53.840;10.762;2023-07-31T01:11:33;16.00;99.90
8557;DHT22;4316;53.840;10.762;2023-07-31T01:14:00;16.00;99.90
8557;DHT22;4316;53.840;10.762;2023-07-31T01:16:26;16.00;99.90
8557;DHT22;4316;53.840;10.762;2023-07-31T01:18:52;16.00;99.90
8557;DHT22;4316;53.840;10.762;2023-07-31T01:21:31;16.00;99.90
8557;DHT22;4316;53.840;10.762;2023-07-31T01:26:36;16.00;99.90
8557;DHT22;4316;53.840;10.762;2023-07-31T01:29:12;16.00;99.90
8557;DHT22;4316;53.840;10.762;2023-07-31T01:31:41;15.90;99.90
8557;DHT22;4316;53.840;10.762;2023-07-31T01:34:09;15.90;99.90
8557;DHT22;4316;53.840;10.762;2023-07-31T01:36:35;15.80;99.90
8557;DHT22;4316;53.840;10.762;2023-07-31T01:39:02;15.80;99.90
8557;DHT22;4316;53.840;10.762;2023-07-31T01:41:29;15.90;99.90
8557;DHT22;4316;53.840;10.762;2023-07-31T01:43:55;15.90;99.90
8557;DHT22;4316;53.840;10.762;2023-07-31T01:46:21;15.90;99.90
8557;DHT22;4316;53.840;10.762;2023-07-31T01:48:46;15.90;99.90
8557;DHT22;4316;53.840;10.762;2023-07-31T01:51:12;15.90;99.90
8557;DHT22;4316;53.840;10.762;2023-07-31T01:53:37;15.90;99.90
8557;DHT22;4316;53.840;10.762;2023-07-31T01:56:03;15.90;99.90
8557;DHT22;4316;53.840;10.762;2023-07-31T01:58:30;15.80;99.90
8557;DHT22;4316;53.840;10.762;2023-07-31T02:00:55;15.80;99.90
8557;DHT22;4316;53.840;10.762;2023-07-31T02:03:21;15.90;99.90
8557;DHT22;4316;53.840;10.762;2023-07-31T02:05:48;15.80;99.90
8557;DHT22;4316;53.840;10.762;2023-07-31T02:08:14;15.90;99.90
8557;DHT22;4316;53.840;10.762;2023-07-31T02:10:40;15.90;99.90
8557;DHT22;4316;53.840;10.762;2023-07-31T02:13:06;15.80;99.90
8557;DHT22;4316;53.840;10.762;2023-07-31T02:15:31;15.90;99.90
8557;DHT22;4316;53.840;10.762;2023-07-31T02:17:57;15.90;99.90
8557;DHT22;4316;53.840;10.762;2023-07-31T02:20:24;15.80;99.90
8557;DHT22;4316;53.840;10.762;2023-07-31T02:22:50;15.80;99.90
8557;DHT22;4316;53.840;10.762;2023-07-31T02:25:15;15.80;99.90
8557;DHT22;4316;53.840;10.762;2023-07-31T02:27:41;15.90;99.90
8557;DHT22;4316;53.840;10.762;2023-07-31T02:30:07;15.90;99.90
8557;DHT22;4316;53.840;10.762;2023-07-31T02:32:33;15.90;99.90
8557;DHT22;4316;53.840;10.762;2023-07-31T02:34:58;15.80;99.90
8557;DHT22;4316;53.840;10.762;2023-07-31T02:37:25;15.90;99.90
8557;DHT22;4316;53.840;10.762;2023-07-31T02:39:51;15.90;99.90
8557;DHT22;4316;53.840;10.762;2023-07-31T02:42:17;15.90;99.90
8557;DHT22;4316;53.840;10.762;2023-07-31T02:44:42;15.90;99.90
8557;DHT22;4316;53.840;10.762;2023-07-31T02:47:08;15.90;99.90
8557;DHT22;4316;53.840;10.762;2023-07-31T02:49:34;15.90;99.90
8557;DHT22;4316;53.840;10.762;2023-07-31T02:52:00;15.80;99.90
8557;DHT22;4316;53.840;10.762;2023-07-31T02:54:25;15.80;99.90
8557;DHT22;4316;53.840;10.762;2023-07-31T02:56:51;15.80;99.90
8557;DHT22;4316;53.840;10.762;2023-07-31T02:59:17;15.80;99.90
8557;DHT22;4316;53.840;10.762;2023-07-31T03:01:43;15.80;99.90
8557;DHT22;4316;53.840;10.762;2023-07-31T03:04:08;15.90;99.90
8557;DHT22;4316;53.840;10.762;2023-07-31T03:06:34;15.90;99.90
8557;DHT22;4316;53.840;10.762;2023-07-31T03:08:59;15.90;99.90
8557;DHT22;4316;53.840;10.762;2023-07-31T03:11:25;15.80;99.90
8557;DHT22;4316;53.840;10.762;2023-07-31T03:13:50;15.80;99.90
8557;DHT22;4316;53.840;10.762;2023-07-31T03:16:16;15.90;99.90
8557;DHT22;4316;53.840;10.762;2023-07-31T03:18:42;15.90;99.90
8557;DHT22;4316;53.840;10.762;2023-07-31T03:21:07;15.90;99.90
8557;DHT22;4316;53.840;10.762;2023-07-31T03:23:33;15.90;99.90
8557;DHT22;4316;53.840;10.762;2023-07-31T03:25:59;15.90;99.90
8557;DHT22;4316;53.840;10.762;2023-07-31T03:28:27;15.90;99.90
8557;DHT22;4316;53.840;10.762;2023-07-31T03:30:53;15.90;99.90
8557;DHT22;4316;53.840;10.762;2023-07-31T03:33:18;15.80;99.90
8557;DHT22;4316;53.840;10.762;2023-07-31T03:35:44;15.90;99.90
8557;DHT22;4316;53.840;10.762;2023-07-31T03:38:10;15.90;99.90
8557;DHT22;4316;53.840;10.762;2023-07-31T03:40:36;15.80;99.90
8557;DHT22;4316;53.840;10.762;2023-07-31T03:43:01;15.90;99.90
8557;DHT22;4316;53.840;10.762;2023-07-31T03:45:27;15.90;99.90
8557;DHT22;4316;53.840;10.762;2023-07-31T03:47:53;15.90;99.90
8557;DHT22;4316;53.840;10.762;2023-07-31T03:50:20;15.90;99.90
8557;DHT22;4316;53.840;10.762;2023-07-31T03:52:46;15.90;99.90
8557;DHT22;4316;53.840;10.762;2023-07-31T03:55:11;15.90;99.90
8557;DHT22;4316;53.840;10.762;2023-07-31T03:57:37;16.00;99.90
8557;DHT22;4316;53.840;10.762;2023-07-31T04:00:03;16.00;99.90
8557;DHT22;4316;53.840;10.762;2023-07-31T04:02:37;15.90;99.90
8557;DHT22;4316;53.840;10.762;2023-07-31T04:05:03;16.00;99.90
8557;DHT22;4316;53.840;10.762;2023-07-31T04:07:29;15.80;99.90
8557;DHT22;4316;53.840;10.762;2023-07-31T04:09:55;16.00;99.90
8557;DHT22;4316;53.840;10.762;2023-07-31T04:12:20;16.00;99.90
8557;DHT22;4316;53.840;10.762;2023-07-31T04:14:46;16.00;99.90
8557;DHT22;4316;53.840;10.762;2023-07-31T04:17:11;16.00;99.90
8557;DHT22;4316;53.840;10.762;2023-07-31T04:19:37;15.90;99.90
8557;DHT22;4316;53.840;10.762;2023-07-31T04:22:03;15.90;99.90
8557;DHT22;4316;53.840;10.762;2023-07-31T04:24:28;16.00;99.90
8557;DHT22;4316;53.840;10.762;2023-07-31T04:26:54;16.00;99.90
8557;DHT22;4316;53.840;10.762;2023-07-31T04:29:19;16.00;99.90
8557;DHT22;4316;53.840;10.762;2023-07-31T04:31:45;16.00;99.90
8557;DHT22;4316;53.840;10.762;2023-07-31T04:34:11;16.00;99.90
8557;DHT22;4316;53.840;10.762;2023-07-31T04:36:39;16.00;99.90
8557;DHT22;4316;53.840;10.762;2023-07-31T04:39:05;16.00;99.90
8557;DHT22;4316;53.840;10.762;2023-07-31T04:41:31;16.00;99.90
8557;DHT22;4316;53.840;10.762;2023-07-31T04:43:56;16.10;99.90
8557;DHT22;4316;53.840;10.762;2023-07-31T04:46:22;16.10;99.90
8557;DHT22;4316;53.840;10.762;2023-07-31T04:48:47;16.10;99.90
8557;DHT22;4316;53.840;10.762;2023-07-31T04:51:13;16.10;99.90
8557;DHT22;4316;53.840;10.762;2023-07-31T04:53:39;16.10;99.90
8557;DHT22;4316;53.840;10.762;2023-07-31T04:56:04;16.10;99.90
8557;DHT22;4316;53.840;10.762;2023-07-31T04:58:30;16.10;99.90
8557;DHT22;4316;53.840;10.762;2023-07-31T05:00:55;16.00;99.90
8557;DHT22;4316;53.840;10.762;2023-07-31T05:03:21;16.10;99.90
8557;DHT22;4316;53.840;10.762;2023-07-31T05:05:46;16.10;99.90
8557;DHT22;4316;53.840;10.762;2023-07-31T05:08:12;16.10;99.90
8557;DHT22;4316;53.840;10.762;2023-07-31T05:10:37;16.20;99.90
8557;DHT22;4316;53.840;10.762;2023-07-31T05:13:03;16.20;99.90
8557;DHT22;4316;53.840;10.762;2023-07-31T05:15:29;16.20;99.90
8557;DHT22;4316;53.840;10.762;2023-07-31T05:17:54;16.20;99.90
8557;DHT22;4316;53.840;10.762;2023-07-31T05:20:21;16.20;99.90
8557;DHT22;4316;53.840;10.762;2023-07-31T05:22:46;16.20;99.90
8557;DHT22;4316;53.840;10.762;2023-07-31T05:25:12;16.20;99.90
8557;DHT22;4316;53.840;10.762;2023-07-31T05:27:38;16.30;99.90
8557;DHT22;4316;53.840;10.762;2023-07-31T05:30:04;16.30;99.90
8557;DHT22;4316;53.840;10.762;2023-07-31T05:32:30;16.30;99.90
8557;DHT22;4316;53.840;10.762;2023-07-31T05:34:56;16.30;99.90
8557;DHT22;4316;53.840;10.762;2023-07-31T05:37:22;16.30;99.90
8557;DHT22;4316;53.840;10.762;2023-07-31T05:39:47;16.30;99.90
8557;DHT22;4316;53.840;10.762;2023-07-31T05:42:13;16.30;99.90
8557;DHT22;4316;53.840;10.762;2023-07-31T05:44:38;16.30;99.90
8557;DHT22;4316;53.840;10.762;2023-07-31T05:47:04;16.40;99.90
8557;DHT22;4316;53.840;10.762;2023-07-31T05:49:30;16.30;99.90
8557;DHT22;4316;53.840;10.762;2023-07-31T05:51:56;16.30;99.90
8557;DHT22;4316;53.840;10.762;2023-07-31T05:54:21;16.30;99.90
8557;DHT22;4316;53.840;10.762;2023-07-31T05:56:47;16.40;99.90
8557;DHT22;4316;53.840;10.762;2023-07-31T05:59:12;16.30;99.90
8557;DHT22;4316;53.840;10.762;2023-07-31T06:01:39;16.40;99.90
8557;DHT22;4316;53.840;10.762;2023-07-31T06:04:04;16.40;99.90
8557;DHT22;4316;53.840;10.762;2023-07-31T06:06:30;16.40;99.90
8557;DHT22;4316;53.840;10.762;2023-07-31T06:08:56;16.40;99.90
8557;DHT22;4316;53.840;10.762;2023-07-31T06:11:22;16.50;99.90
8557;DHT22;4316;53.840;10.762;2023-07-31T06:13:48;16.50;99.90
8557;DHT22;4316;53.840;10.762;2023-07-31T06:16:14;16.50;99.90
8557;DHT22;4316;53.840;10.762;2023-07-31T06:18:41;16.50;99.90
8557;DHT22;4316;53.840;10.762;2023-07-31T06:21:06;16.50;99.90
8557;DHT22;4316;53.840;10.762;2023-07-31T06:23:32;16.50;99.90
8557;DHT22;4316;53.840;10.762;2023-07-31T06:25:58;16.60;99.90
8557;DHT22;4316;53.840;10.762;2023-07-31T06:28:27;16.60;99.90
8557;DHT22;4316;53.840;10.762;2023-07-31T06:30:54;16.60;99.90
8557;DHT22;4316;53.840;10.762;2023-07-31T06:33:19;16.60;99.90
8557;DHT22;4316;53.840;10.762;2023-07-31T06:35:45;16.70;99.90
8557;DHT22;4316;53.840;10.762;2023-07-31T06:38:11;16.70;99.90
8557;DHT22;4316;53.840;10.762;2023-07-31T06:40:36;16.60;99.90
8557;DHT22;4316;53.840;10.762;2023-07-31T06:43:02;16.70;99.90
8557;DHT22;4316;53.840;10.762;2023-07-31T06:45:34;16.70;99.90
8557;DHT22;4316;53.840;10.762;2023-07-31T06:48:00;16.80;99.90
8557;DHT22;4316;53.840;10.762;2023-07-31T06:50:28;16.80;99.90
8557;DHT22;4316;53.840;10.762;2023-07-31T06:52:54;16.80;99.90
8557;DHT22;4316;53.840;10.762;2023-07-31T06:55:21;16.80;99.90
8557;DHT22;4316;53.840;10.762;2023-07-31T06:57:48;16.90;99.90
8557;DHT22;4316;53.840;10.762;2023-07-31T07:00:14;16.90;99.90
8557;DHT22;4316;53.840;10.762;2023-07-31T07:02:40;16.90;99.90
8557;DHT22;4316;53.840;10.762;2023-07-31T07:05:06;16.90;99.90
8557;DHT22;4316;53.840;10.762;2023-07-31T07:07:32;16.90;99.90
8557;DHT22;4316;53.840;10.762;2023-07-31T07:09:58;16.90;99.90
8557;DHT22;4316;53.840;10.762;2023-07-31T07:12:25;16.90;99.90
8557;DHT22;4316;53.840;10.762;2023-07-31T07:14:51;16.90;99.90
8557;DHT22;4316;53.840;10.762;2023-07-31T07:17:18;17.00;99.90
8557;DHT22;4316;53.840;10.762;2023-07-31T07:19:44;17.00;99.90
8557;DHT22;4316;53.840;10.762;2023-07-31T07:22:11;17.00;99.90
8557;DHT22;4316;53.840;10.762;2023-07-31T07:24:36;17.00;99.90
8557;DHT22;4316;53.840;10.762;2023-07-31T07:27:02;17.00;99.90
8557;DHT22;4316;53.840;10.762;2023-07-31T07:29:28;17.00;99.90
8557;DHT22;4316;53.840;10.762;2023-07-31T07:31:54;17.00;99.90
8557;DHT22;4316;53.840;10.762;2023-07-31T07:34:19;17.00;99.90
8557;DHT22;4316;53.840;10.762;2023-07-31T07:36:47;17.00;99.90
8557;DHT22;4316;53.840;10.762;2023-07-31T07:39:13;17.10;99.90
8557;DHT22;4316;53.840;10.762;2023-07-31T07:41:38;17.00;99.90
8557;DHT22;4316;53.840;10.762;2023-07-31T07:44:04;17.00;99.90
8557;DHT22;4316;53.840;10.762;2023-07-31T07:46:29;17.10;99.90
8557;DHT22;4316;53.840;10.762;2023-07-31T07:48:55;17.00;99.90
8557;DHT22;4316;53.840;10.762;2023-07-31T07:51:20;17.00;99.90
8557;DHT22;4316;53.840;10.762;2023-07-31T07:53:46;17.00;99.90
8557;DHT22;4316;53.840;10.762;2023-07-31T07:56:12;16.90;99.90
8557;DHT22;4316;53.840;10.762;2023-07-31T07:58:37;16.90;99.90
8557;DHT22;4316;53.840;10.762;2023-07-31T08:01:03;17.00;99.90
8557;DHT22;4316;53.840;10.762;2023-07-31T08:03:28;17.00;99.90
8557;DHT22;4316;53.840;10.762;2023-07-31T08:05:58;17.00;99.90
8557;DHT22;4316;53.840;10.762;2023-07-31T08:08:24;17.00;99.90
8557;DHT22;4316;53.840;10.762;2023-07-31T08:10:49;17.00;99.90
8557;DHT22;4316;53.840;10.762;2023-07-31T08:13:15;17.00;99.90
8557;DHT22;4316;53.840;10.762;2023-07-31T08:15:41;17.00;99.90
8557;DHT22;4316;53.840;10.762;2023-07-31T08:18:07;17.10;99.90
8557;DHT22;4316;53.840;10.762;2023-07-31T08:20:33;17.10;99.90
8557;DHT22;4316;53.840;10.762;2023-07-31T08:22:58;17.10;99.90
8557;DHT22;4316;53.840;10.762;2023-07-31T08:25:24;17.20;99.90
8557;DHT22;4316;53.840;10.762;2023-07-31T08:27:50;17.20;99.90
8557;DHT22;4316;53.840;10.762;2023-07-31T08:30:18;17.20;99.90
8557;DHT22;4316;53.840;10.762;2023-07-31T08:32:44;17.30;99.90
8557;DHT22;4316;53.840;10.762;2023-07-31T08:35:09;17.30;99.90
8557;DHT22;4316;53.840;10.762;2023-07-31T08:37:35;17.30;99.90
8557;DHT22;4316;53.840;10.762;2023-07-31T08:40:01;17.30;99.90
8557;DHT22;4316;53.840;10.762;2023-07-31T08:42:26;17.30;99.90
8557;DHT22;4316;53.840;10.762;2023-07-31T08:44:52;17.30;99.90
8557;DHT22;4316;53.840;10.762;2023-07-31T08:47:19;17.30;99.90
8557;DHT22;4316;53.840;10.762;2023-07-31T08:49:46;17.40;99.90
8557;DHT22;4316;53.840;10.762;2023-07-31T08:52:12;17.40;99.90
8557;DHT22;4316;53.840;10.762;2023-07-31T08:54:38;17.40;99.90
8557;DHT22;4316;53.840;10.762;2023-07-31T08:57:05;17.40;99.90
8557;DHT22;4316;53.840;10.762;2023-07-31T08:59:31;17.40;99.90
8557;DHT22;4316;53.840;10.762;2023-07-31T09:02:05;17.50;99.90
8557;DHT22;4316;53.840;10.762;2023-07-31T09:04:31;17.50;99.90
8557;DHT22;4316;53.840;10.762;2023-07-31T09:07:00;17.40;99.90
8557;DHT22;4316;53.840;10.762;2023-07-31T09:09:26;17.40;99.90
8557;DHT22;4316;53.840;10.762;2023-07-31T09:11:52;17.50;99.90
8557;DHT22;4316;53.840;10.762;2023-07-31T09:14:19;17.50;99.90
8557;DHT22;4316;53.840;10.762;2023-07-31T09:16:58;17.50;99.90
8557;DHT22;4316;53.840;10.762;2023-07-31T09:19:26;17.50;99.90
8557;DHT22;4316;53.840;10.762;2023-07-31T09:21:52;17.50;99.90
8557;DHT22;4316;53.840;10.762;2023-07-31T09:24:28;17.60;99.90
8557;DHT22;4316;53.840;10.762;2023-07-31T09:26:54;17.60;99.90
8557;DHT22;4316;53.840;10.762;2023-07-31T09:29:24;17.50;99.90
8557;DHT22;4316;53.840;10.762;2023-07-31T09:31:50;17.50;99.90
8557;DHT22;4316;53.840;10.762;2023-07-31T09:34:16;17.40;99.90
8557;DHT22;4316;53.840;10.762;2023-07-31T09:36:44;17.40;99.90
8557;DHT22;4316;53.840;10.762;2023-07-31T09:39:10;17.40;99.90
8557;DHT22;4316;53.840;10.762;2023-07-31T09:41:38;17.50;99.90
8557;DHT22;4316;53.840;10.762;2023-07-31T09:44:04;17.60;99.90
8557;DHT22;4316;53.840;10.762;2023-07-31T09:46:30;17.70;99.90
8557;DHT22;4316;53.840;10.762;2023-07-31T09:49:08;17.80;99.90
8557;DHT22;4316;53.840;10.762;2023-07-31T09:51:35;17.90;99.90
8557;DHT22;4316;53.840;10.762;2023-07-31T09:54:14;17.90;99.90
8557;DHT22;4316;53.840;10.762;2023-07-31T09:56:47;18.00;99.90
8557;DHT22;4316;53.840;10.762;2023-07-31T09:59:18;18.00;99.90
8557;DHT22;4316;53.840;10.762;2023-07-31T10:01:45;18.10;99.90
8557;DHT22;4316;53.840;10.762;2023-07-31T10:04:12;18.20;99.90
8557;DHT22;4316;53.840;10.762;2023-07-31T10:06:38;18.30;99.90
8557;DHT22;4316;53.840;10.762;2023-07-31T10:09:12;18.40;99.90
8557;DHT22;4316;53.840;10.762;2023-07-31T10:11:46;18.40;99.90
8557;DHT22;4316;53.840;10.762;2023-07-31T10:14:20;18.50;99.90
8557;DHT22;4316;53.840;10.762;2023-07-31T10:16:46;18.50;99.90
8557;DHT22;4316;53.840;10.762;2023-07-31T10:19:12;18.50;99.90
8557;DHT22;4316;53.840;10.762;2023-07-31T10:21:38;18.50;99.90
8557;DHT22;4316;53.840;10.762;2023-07-31T10:24:04;18.50;99.90
8557;DHT22;4316;53.840;10.762;2023-07-31T10:26:31;18.50;99.90
8557;DHT22;4316;53.840;10.762;2023-07-31T10:28:58;18.60;99.90
8557;DHT22;4316;53.840;10.762;2023-07-31T10:31:24;18.70;99.90
8557;DHT22;4316;53.840;10.762;2023-07-31T10:33:51;18.80;99.90
8557;DHT22;4316;53.840;10.762;2023-07-31T10:36:18;18.80;99.90
8557;DHT22;4316;53.840;10.762;2023-07-31T10:38:45;18.70;99.90
8557;DHT22;4316;53.840;10.762;2023-07-31T10:41:10;18.70;99.90
8557;DHT22;4316;53.840;10.762;2023-07-31T10:43:37;18.70;99.90
8557;DHT22;4316;53.840;10.762;2023-07-31T10:46:07;18.60;99.90
8557;DHT22;4316;53.840;10.762;2023-07-31T10:48:34;18.60;99.90
8557;DHT22;4316;53.840;10.762;2023-07-31T10:51:10;18.60;99.90
8557;DHT22;4316;53.840;10.762;2023-07-31T10:53:37;18.60;99.90
8557;DHT22;4316;53.840;10.762;2023-07-31T10:56:05;18.60;99.90
8557;DHT22;4316;53.840;10.762;2023-07-31T10:58:31;18.50;99.90
8557;DHT22;4316;53.840;10.762;2023-07-31T11:01:04;18.50;99.90
8557;DHT22;4316;53.840;10.762;2023-07-31T11:03:46;18.50;99.90
8557;DHT22;4316;53.840;10.762;2023-07-31T11:06:13;18.60;99.90
8557;DHT22;4316;53.840;10.762;2023-07-31T11:08:50;18.60;99.90
8557;DHT22;4316;53.840;10.762;2023-07-31T11:11:20;18.60;99.90
8557;DHT22;4316;53.840;10.762;2023-07-31T11:13:50;18.60;99.90
8557;DHT22;4316;53.840;10.762;2023-07-31T11:16:19;18.60;99.90
8557;DHT22;4316;53.840;10.762;2023-07-31T11:18:46;18.60;99.90
8557;DHT22;4316;53.840;10.762;2023-07-31T11:21:18;18.60;99.90
8557;DHT22;4316;53.840;10.762;2023-07-31T11:23:57;18.50;99.90
8557;DHT22;4316;53.840;10.762;2023-07-31T11:26:24;18.40;99.90
8557;DHT22;4316;53.840;10.762;2023-07-31T11:28:50;18.40;99.90
8557;DHT22;4316;53.840;10.762;2023-07-31T11:31:17;18.40;99.90
8557;DHT22;4316;53.840;10.762;2023-07-31T11:33:43;18.40;99.90
8557;DHT22;4316;53.840;10.762;2023-07-31T11:36:19;18.50;99.90
8557;DHT22;4316;53.840;10.762;2023-07-31T11:38:45;18.60;99.90
8557;DHT22;4316;53.840;10.762;2023-07-31T11:41:10;18.60;99.90
8557;DHT22;4316;53.840;10.762;2023-07-31T11:43:39;18.50;99.90
8557;DHT22;4316;53.840;10.762;2023-07-31T11:46:04;18.50;99.90
8557;DHT22;4316;53.840;10.762;2023-07-31T11:48:33;18.40;99.90
8557;DHT22;4316;53.840;10.762;2023-07-31T11:51:03;18.50;99.90
8557;DHT22;4316;53.840;10.762;2023-07-31T11:53:41;18.50;99.90
8557;DHT22;4316;53.840;10.762;2023-07-31T11:56:09;18.50;99.90
8557;DHT22;4316;53.840;10.762;2023-07-31T11:58:37;18.40;99.90
8557;DHT22;4316;53.840;10.762;2023-07-31T12:01:03;18.30;99.90
8557;DHT22;4316;53.840;10.762;2023-07-31T12:03:30;18.20;99.90
8557;DHT22;4316;53.840;10.762;2023-07-31T12:05:56;18.10;99.90
8557;DHT22;4316;53.840;10.762;2023-07-31T12:08:24;18.10;99.90
8557;DHT22;4316;53.840;10.762;2023-07-31T12:10:51;18.00;99.90
8557;DHT22;4316;53.840;10.762;2023-07-31T12:13:22;17.90;99.90
8557;DHT22;4316;53.840;10.762;2023-07-31T12:15:48;17.90;99.90
8557;DHT22;4316;53.840;10.762;2023-07-31T12:18:21;17.90;99.90
8557;DHT22;4316;53.840;10.762;2023-07-31T12:20:52;17.90;99.90
8557;DHT22;4316;53.840;10.762;2023-07-31T12:23:20;17.90;99.90
8557;DHT22;4316;53.840;10.762;2023-07-31T12:26:11;17.90;99.90
8557;DHT22;4316;53.840;10.762;2023-07-31T12:28:46;17.90;99.90
8557;DHT22;4316;53.840;10.762;2023-07-31T12:31:20;17.90;99.90
8557;DHT22;4316;53.840;10.762;2023-07-31T12:33:48;17.90;99.90
8557;DHT22;4316;53.840;10.762;2023-07-31T12:36:16;17.80;99.90
8557;DHT22;4316;53.840;10.762;2023-07-31T12:38:43;17.90;99.90
8557;DHT22;4316;53.840;10.762;2023-07-31T12:41:09;17.90;99.90
8557;DHT22;4316;53.840;10.762;2023-07-31T12:43:35;17.90;99.90
8557;DHT22;4316;53.840;10.762;2023-07-31T12:46:01;17.90;99.90
8557;DHT22;4316;53.840;10.762;2023-07-31T12:48:27;18.00;99.90
8557;DHT22;4316;53.840;10.762;2023-07-31T12:50:52;18.00;99.90
8557;DHT22;4316;53.840;10.762;2023-07-31T12:53:18;18.10;99.90
8557;DHT22;4316;53.840;10.762;2023-07-31T12:55:44;18.10;99.90
8557;DHT22;4316;53.840;10.762;2023-07-31T12:58:09;18.20;99.90
8557;DHT22;4316;53.840;10.762;2023-07-31T13:00:35;18.10;99.90
8557;DHT22;4316;53.840;10.762;2023-07-31T13:03:01;18.20;99.90
8557;DHT22;4316;53.840;10.762;2023-07-31T13:05:27;18.20;99.90
8557;DHT22;4316;53.840;10.762;2023-07-31T13:07:53;18.20;99.90
8557;DHT22;4316;53.840;10.762;2023-07-31T13:10:19;18.20;99.90
8557;DHT22;4316;53.840;10.762;2023-07-31T13:12:46;18.40;99.90
8557;DHT22;4316;53.840;10.762;2023-07-31T13:15:12;18.50;99.90
8557;DHT22;4316;53.840;10.762;2023-07-31T13:17:37;18.60;99.90
8557;DHT22;4316;53.840;10.762;2023-07-31T13:20:03;18.70;99.90
8557;DHT22;4316;53.840;10.762;2023-07-31T13:22:30;18.70;99.90
8557;DHT22;4316;53.840;10.762;2023-07-31T13:24:55;18.70;99.90
8557;DHT22;4316;53.840;10.762;2023-07-31T13:27:21;18.80;99.90
8557;DHT22;4316;53.840;10.762;2023-07-31T13:29:48;18.80;99.90
8557;DHT22;4316;53.840;10.762;2023-07-31T13:32:15;18.80;99.90
8557;DHT22;4316;53.840;10.762;2023-07-31T13:34:40;18.80;99.90
8557;DHT22;4316;53.840;10.762;2023-07-31T13:37:06;18.70;99.90
8557;DHT22;4316;53.840;10.762;2023-07-31T13:39:32;18.60;99.90
8557;DHT22;4316;53.840;10.762;2023-07-31T13:41:58;18.70;99.90
8557;DHT22;4316;53.840;10.762;2023-07-31T13:44:24;18.60;99.90
8557;DHT22;4316;53.840;10.762;2023-07-31T13:46:49;18.70;99.90
8557;DHT22;4316;53.840;10.762;2023-07-31T13:49:15;18.50;99.90
8557;DHT22;4316;53.840;10.762;2023-07-31T13:51:41;18.50;99.90
8557;DHT22;4316;53.840;10.762;2023-07-31T13:54:06;18.60;99.90
8557;DHT22;4316;53.840;10.762;2023-07-31T13:56:32;18.80;99.90
8557;DHT22;4316;53.840;10.762;2023-07-31T13:58:58;19.00;99.90
8557;DHT22;4316;53.840;10.762;2023-07-31T14:01:23;19.20;99.90
8557;DHT22;4316;53.840;10.762;2023-07-31T14:03:49;19.20;99.90
8557;DHT22;4316;53.840;10.762;2023-07-31T14:06:15;19.10;99.90
8557;DHT22;4316;53.840;10.762;2023-07-31T14:08:40;19.10;99.90
8557;DHT22;4316;53.840;10.762;2023-07-31T14:11:06;19.10;99.90
8557;DHT22;4316;53.840;10.762;2023-07-31T14:13:32;19.00;99.90
8557;DHT22;4316;53.840;10.762;2023-07-31T14:15:57;19.10;99.90
8557;DHT22;4316;53.840;10.762;2023-07-31T14:18:23;19.10;99.90
8557;DHT22;4316;53.840;10.762;2023-07-31T14:20:48;19.10;99.90
8557;DHT22;4316;53.840;10.762;2023-07-31T14:23:14;19.10;99.90
8557;DHT22;4316;53.840;10.762;2023-07-31T14:25:41;19.20;99.90
8557;DHT22;4316;53.840;10.762;2023-07-31T14:28:06;19.00;99.90
8557;DHT22;4316;53.840;10.762;2023-07-31T14:30:32;18.90;99.90
8557;DHT22;4316;53.840;10.762;2023-07-31T14:32:58;19.10;99.90
8557;DHT22;4316;53.840;10.762;2023-07-31T14:35:26;19.20;99.90
8557;DHT22;4316;53.840;10.762;2023-07-31T14:37:51;19.10;99.90
8557;DHT22;4316;53.840;10.762;2023-07-31T14:40:17;19.20;99.90
8557;DHT22;4316;53.840;10.762;2023-07-31T14:42:42;19.10;99.90
8557;DHT22;4316;53.840;10.762;2023-07-31T14:45:08;19.00;99.90
8557;DHT22;4316;53.840;10.762;2023-07-31T14:47:35;18.50;99.90
8557;DHT22;4316;53.840;10.762;2023-07-31T14:50:01;18.40;99.90
8557;DHT22;4316;53.840;10.762;2023-07-31T14:52:27;18.40;99.90
8557;DHT22;4316;53.840;10.762;2023-07-31T14:54:53;18.40;99.90
8557;DHT22;4316;53.840;10.762;2023-07-31T14:57:19;18.10;99.90
8557;DHT22;4316;53.840;10.762;2023-07-31T14:59:46;18.00;99.90
8557;DHT22;4316;53.840;10.762;2023-07-31T15:02:12;18.20;99.90
8557;DHT22;4316;53.840;10.762;2023-07-31T15:04:37;18.00;99.90
8557;DHT22;4316;53.840;10.762;2023-07-31T15:07:03;17.90;99.90
8557;DHT22;4316;53.840;10.762;2023-07-31T15:09:29;17.90;99.90
8557;DHT22;4316;53.840;10.762;2023-07-31T15:11:55;18.00;99.90
8557;DHT22;4316;53.840;10.762;2023-07-31T15:14:21;18.20;99.90
8557;DHT22;4316;53.840;10.762;2023-07-31T15:16:47;18.30;99.90
8557;DHT22;4316;53.840;10.762;2023-07-31T15:19:12;18.40;99.90
8557;DHT22;4316;53.840;10.762;2023-07-31T15:21:39;18.40;99.90
8557;DHT22;4316;53.840;10.762;2023-07-31T15:24:04;18.30;99.90
8557;DHT22;4316;53.840;10.762;2023-07-31T15:26:30;18.20;99.90
8557;DHT22;4316;53.840;10.762;2023-07-31T15:29:04;18.10;99.90
8557;DHT22;4316;53.840;10.762;2023-07-31T15:31:40;18.10;99.90
8557;DHT22;4316;53.840;10.762;2023-07-31T15:34:06;17.90;99.90
8557;DHT22;4316;53.840;10.762;2023-07-31T15:36:32;17.70;99.90
8557;DHT22;4316;53.840;10.762;2023-07-31T15:38:57;17.70;99.90
8557;DHT22;4316;53.840;10.762;2023-07-31T15:41:23;17.70;99.90
8557;DHT22;4316;53.840;10.762;2023-07-31T15:43:49;17.90;99.90